createdAt,value
2023-05-10T00:02:56.518Z,2.50
2023-05-10T00:07:50.235Z,1.83
2023-05-10T00:12:43.011Z,1.58
2023-05-10T00:17:35.937Z,1.60
2023-05-10T00:22:28.961Z,1.65
2023-05-10T00:27:22.513Z,1.55
2023-05-10T00:32:16.146Z,2.03
2023-05-10T00:37:08.757Z,1.85
2023-05-10T00:42:01.761Z,1.75
2023-05-10T00:46:55.367Z,1.75
2023-05-10T00:51:48.996Z,1.48
2023-05-10T00:56:42.456Z,1.63
2023-05-10T01:01:35.213Z,1.58
2023-05-10T01:06:28.358Z,1.50
2023-05-10T01:11:22.579Z,1.50
2023-05-10T01:16:15.998Z,1.85
2023-05-10T01:21:33.124Z,1.77
2023-05-10T01:26:53.484Z,1.70
2023-05-10T01:32:19.683Z,1.40
2023-05-10T01:37:23.102Z,1.50
2023-05-10T01:42:21.612Z,2.20
2023-05-10T01:47:36.965Z,1.70
2023-05-10T01:52:43.165Z,1.60
2023-05-10T01:57:38.882Z,1.55
2023-05-10T02:02:36.417Z,1.50
2023-05-10T02:07:31.702Z,1.58
2023-05-10T02:12:25.727Z,1.48
2023-05-10T02:17:18.295Z,1.50
2023-05-10T02:22:11.656Z,1.67
2023-05-10T02:27:06.725Z,1.50
2023-05-10T02:32:01.964Z,1.63
2023-05-10T02:36:57.722Z,1.52
2023-05-10T02:41:51.555Z,1.33
2023-05-10T02:46:45.353Z,1.30
2023-05-10T02:51:44.001Z,1.50
2023-05-10T02:56:42.221Z,1.40
2023-05-10T03:01:35.484Z,1.40
2023-05-10T03:06:30.160Z,1.60
2023-05-10T03:11:51.133Z,1.63
2023-05-10T03:17:05.722Z,1.45
2023-05-10T03:22:05.186Z,1.38
2023-05-10T03:27:04.358Z,1.65
2023-05-10T03:31:57.431Z,1.27
2023-05-10T03:36:50.507Z,1.33
2023-05-10T03:41:43.769Z,1.30
2023-05-10T03:46:36.990Z,1.30
2023-05-10T03:51:29.742Z,1.40
2023-05-10T03:56:22.869Z,1.20
2023-05-10T04:01:17.395Z,1.27
2023-05-10T04:06:13.190Z,1.27
2023-05-10T04:11:09.312Z,1.00
2023-05-10T04:16:03.296Z,1.40
2023-05-10T04:20:56.364Z,1.25
2023-05-10T04:25:49.273Z,1.20
2023-05-10T04:30:42.908Z,1.48
2023-05-10T04:35:37.446Z,1.40
2023-05-10T04:40:31.214Z,1.20
2023-05-10T04:45:24.708Z,0.98
2023-05-10T04:50:19.170Z,1.08
2023-05-10T04:55:12.832Z,1.38
2023-05-10T05:00:07.766Z,1.00
2023-05-10T05:05:01.014Z,2.20
2023-05-10T05:09:53.973Z,1.20
2023-05-10T05:14:51.373Z,1.20
2023-05-10T05:19:44.873Z,1.30
2023-05-10T05:24:57.732Z,1.63
2023-05-10T05:29:50.237Z,1.40
2023-05-10T05:34:46.811Z,1.55
2023-05-10T05:39:39.898Z,2.20
2023-05-10T05:44:33.204Z,1.95
2023-05-10T05:49:26.730Z,2.85
2023-05-10T05:54:21.514Z,2.78
2023-05-10T05:59:14.788Z,1.60
2023-05-10T06:04:07.621Z,2.20
2023-05-10T06:09:00.862Z,2.00
2023-05-10T06:13:54.811Z,2.10
2023-05-10T06:18:48.299Z,2.65
2023-05-10T06:23:42.301Z,2.28
2023-05-10T06:28:35.424Z,2.00
2023-05-10T06:33:29.061Z,1.92
2023-05-10T06:38:22.153Z,1.90
2023-05-10T06:43:14.896Z,2.00
2023-05-10T06:48:08.289Z,2.38
2023-05-10T06:53:03.262Z,1.92
2023-05-10T06:57:56.826Z,1.60
2023-05-10T07:02:50.082Z,1.90
2023-05-10T07:07:43.800Z,2.17
2023-05-10T07:12:36.392Z,1.90
2023-05-10T07:17:29.972Z,2.13
2023-05-10T07:22:23.503Z,2.05
2023-05-10T07:27:16.584Z,2.00
2023-05-10T07:32:09.695Z,2.33
2023-05-10T07:37:02.620Z,1.90
2023-05-10T07:41:56.284Z,1.73
2023-05-10T07:46:50.225Z,1.70
2023-05-10T07:51:43.944Z,2.08
2023-05-10T07:56:36.993Z,2.03
2023-05-10T08:01:36.427Z,2.13
2023-05-10T08:06:31.434Z,2.22
2023-05-10T08:11:24.721Z,1.73
2023-05-10T08:16:19.325Z,2.05
2023-05-10T08:21:12.936Z,1.67
2023-05-10T08:26:06.163Z,1.88
2023-05-10T08:30:59.342Z,2.35
2023-05-10T08:35:51.947Z,1.58
2023-05-10T08:40:49.723Z,1.50
2023-05-10T08:45:48.797Z,2.13
2023-05-10T08:50:44.544Z,2.00
2023-05-10T08:55:39.994Z,1.83
2023-05-10T09:00:32.921Z,1.83
2023-05-10T09:05:26.663Z,1.73
2023-05-10T09:10:20.456Z,1.67
2023-05-10T09:15:20.482Z,1.70
2023-05-10T09:20:13.276Z,1.42
2023-05-10T09:25:16.687Z,1.77
2023-05-10T09:30:11.539Z,1.70
2023-05-10T09:35:18.682Z,1.58
2023-05-10T09:40:27.582Z,1.90
2023-05-10T09:45:21.318Z,1.58
2023-05-10T09:50:14.621Z,1.63
2023-05-10T09:55:08.389Z,1.55
2023-05-10T10:00:02.363Z,1.52
2023-05-10T10:05:08.326Z,1.27
2023-05-10T10:10:01.572Z,1.45
2023-05-10T10:14:54.700Z,1.45
2023-05-10T10:19:49.205Z,1.55
2023-05-10T10:24:42.774Z,1.80
2023-05-10T10:29:42.727Z,1.50
2023-05-10T10:34:36.816Z,1.60
2023-05-10T10:39:29.496Z,1.58
2023-05-10T10:44:27.875Z,1.30
2023-05-10T10:49:21.817Z,1.48
2023-05-10T10:54:14.651Z,1.58
2023-05-10T10:59:07.429Z,1.45
2023-05-10T11:04:00.497Z,1.40
2023-05-10T11:08:54.167Z,1.27
2023-05-10T11:13:51.343Z,1.27
2023-05-10T11:19:03.255Z,1.25
2023-05-10T11:24:00.738Z,1.33
2023-05-10T11:28:58.159Z,1.30
2023-05-10T11:33:53.088Z,1.80
2023-05-10T11:38:47.789Z,1.83
2023-05-10T11:43:42.515Z,1.40
2023-05-10T11:48:36.523Z,1.00
2023-05-10T11:53:33.663Z,1.30
2023-05-10T11:58:27.102Z,1.40
2023-05-10T12:03:21.285Z,1.45
2023-05-10T12:08:15.738Z,1.60
2023-05-10T12:13:16.763Z,1.92
2023-05-10T12:18:15.846Z,1.63
2023-05-10T12:23:11.690Z,1.70
2023-05-10T12:28:09.847Z,1.65
2023-05-10T12:33:31.709Z,1.33
2023-05-10T12:38:31.376Z,1.48
2023-05-10T12:43:25.168Z,1.42
2023-05-10T12:48:18.095Z,1.40
2023-05-10T12:53:11.345Z,1.25
2023-05-10T12:58:04.898Z,1.30
2023-05-10T13:02:57.945Z,1.00
2023-05-10T13:07:51.126Z,1.27
2023-05-10T13:12:44.132Z,1.10
2023-05-10T13:17:37.642Z,1.20
2023-05-10T13:22:40.274Z,1.30
2023-05-10T13:27:33.196Z,1.00
2023-05-10T13:32:26.608Z,1.20
2023-05-10T13:37:19.937Z,1.05
2023-05-10T13:42:13.466Z,1.10
2023-05-10T13:47:07.779Z,1.20
2023-05-10T13:52:08.157Z,1.83
2023-05-10T13:57:01.588Z,1.10
2023-05-10T14:01:54.654Z,1.00
2023-05-10T14:06:48.414Z,1.02
2023-05-10T14:11:44.613Z,1.10
2023-05-10T14:16:38.215Z,0.95
2023-05-10T14:21:32.209Z,0.90
2023-05-10T14:26:25.621Z,0.80
2023-05-10T14:31:20.923Z,0.82
2023-05-10T14:36:16.254Z,1.10
2023-05-10T14:41:11.725Z,0.90
2023-05-10T14:46:05.441Z,0.85
2023-05-10T14:50:58.726Z,0.85
2023-05-10T14:55:53.243Z,1.02
2023-05-10T15:00:47.323Z,1.00
2023-05-10T15:05:40.967Z,0.98
2023-05-10T15:10:34.563Z,1.10
2023-05-10T15:15:28.203Z,1.05
2023-05-10T15:20:20.305Z,0.90
2023-05-10T15:25:16.233Z,0.85
2023-05-10T15:30:13.526Z,0.90
2023-05-10T15:35:06.718Z,0.85
2023-05-10T15:40:05.174Z,0.98
2023-05-10T15:44:57.740Z,1.10
2023-05-10T15:49:50.526Z,0.77
2023-05-10T15:54:44.024Z,1.40
2023-05-10T15:59:37.055Z,1.20
2023-05-10T16:04:31.073Z,0.98
2023-05-10T16:09:24.947Z,1.20
2023-05-10T16:14:18.245Z,1.02
2023-05-10T16:19:11.613Z,1.20
2023-05-10T16:24:05.967Z,1.25
2023-05-10T16:28:59.416Z,1.30
2023-05-10T16:33:54.314Z,1.23
2023-05-10T16:38:47.122Z,1.48
2023-05-10T16:43:40.899Z,1.40
2023-05-10T16:48:34.927Z,1.50
2023-05-10T16:53:29.519Z,1.50
2023-05-10T16:58:22.523Z,1.83
2023-05-10T17:03:20.036Z,1.70
2023-05-10T17:08:13.557Z,1.90
2023-05-10T17:13:09.333Z,1.85
2023-05-10T17:18:02.535Z,1.80
2023-05-10T17:22:55.627Z,1.52
2023-05-10T17:27:48.602Z,1.20
2023-05-10T17:32:41.769Z,1.45
2023-05-10T17:37:35.775Z,1.67
2023-05-10T17:42:28.805Z,1.10
2023-05-10T17:47:22.250Z,1.10
2023-05-10T17:52:15.848Z,1.30
2023-05-10T17:57:08.409Z,1.23
2023-05-10T18:02:02.647Z,1.42
2023-05-10T18:07:01.911Z,1.50
2023-05-10T18:11:54.580Z,1.38
2023-05-10T18:16:46.696Z,1.33
2023-05-10T18:21:40.206Z,1.10
2023-05-10T18:26:33.643Z,1.33
2023-05-10T18:31:27.052Z,1.27
2023-05-10T18:36:20.125Z,1.20
2023-05-10T18:41:15.027Z,1.55
2023-05-10T18:46:08.393Z,2.15
2023-05-10T18:51:01.865Z,1.80
2023-05-10T18:55:58.639Z,1.27
2023-05-10T19:00:53.963Z,1.30
2023-05-10T19:05:49.449Z,1.30
2023-05-10T19:10:43.049Z,1.55
2023-05-10T19:15:37.017Z,1.27
2023-05-10T19:20:30.506Z,1.30
2023-05-10T19:25:29.599Z,1.30
2023-05-10T19:30:22.311Z,1.27
2023-05-10T19:35:14.985Z,1.52
2023-05-10T19:40:12.905Z,1.13
2023-05-10T19:45:07.121Z,1.10
2023-05-10T19:50:00.705Z,1.02
2023-05-10T19:54:53.575Z,1.27
2023-05-10T19:59:47.254Z,1.50
2023-05-10T20:04:40.970Z,1.50
2023-05-10T20:09:34.622Z,1.08
2023-05-10T20:14:27.931Z,1.08
2023-05-10T20:19:22.407Z,1.15
2023-05-10T20:24:16.452Z,1.15
2023-05-10T20:29:10.246Z,1.00
2023-05-10T20:34:03.483Z,1.02
2023-05-10T20:38:57.091Z,1.25
2023-05-10T20:43:49.912Z,1.10
2023-05-10T20:48:48.367Z,1.42
2023-05-10T20:53:41.951Z,1.02
2023-05-10T20:58:36.022Z,1.00
2023-05-10T21:03:28.791Z,1.40
2023-05-10T21:08:21.420Z,1.17
2023-05-10T21:13:14.986Z,1.17
2023-05-10T21:18:08.501Z,1.60
2023-05-10T21:23:01.166Z,1.17
2023-05-10T21:27:55.056Z,1.27
2023-05-10T21:32:48.491Z,0.98
2023-05-10T21:37:42.108Z,1.02
2023-05-10T21:42:35.068Z,1.05
2023-05-10T21:47:27.933Z,1.20
2023-05-10T21:52:21.805Z,1.02
2023-05-10T21:57:15.300Z,0.82
2023-05-10T22:02:07.779Z,1.00
2023-05-10T22:07:01.917Z,1.00
2023-05-10T22:11:54.554Z,1.10
2023-05-10T22:16:48.068Z,1.00
2023-05-10T22:21:41.905Z,1.00
2023-05-10T22:26:35.170Z,0.80
2023-05-10T22:31:28.628Z,0.63
2023-05-10T22:36:21.190Z,0.80
2023-05-10T22:41:14.035Z,0.85
2023-05-10T22:46:07.623Z,0.70
2023-05-10T22:51:00.844Z,0.88
2023-05-10T22:55:54.477Z,0.88
2023-05-10T23:00:47.437Z,0.73
2023-05-10T23:05:40.887Z,0.80
2023-05-10T23:10:34.636Z,0.93
2023-05-10T23:15:28.583Z,0.70
2023-05-10T23:20:21.998Z,0.95
2023-05-10T23:25:16.344Z,0.57
2023-05-10T23:30:10.934Z,0.80
2023-05-10T23:35:04.479Z,0.90
2023-05-10T23:39:57.622Z,0.60
2023-05-10T23:44:52.821Z,0.70
2023-05-10T23:49:46.092Z,0.70
2023-05-10T23:54:39.090Z,1.10
2023-05-10T23:59:32.050Z,0.60
